Time;durP1;ratioP1;P1;durP2;ratioP2;P2;SDS_P1;SDS_P2;PMS_P1;PMS_P2;Temp;Humidity;BMP_temperature;BMP_pressure;BME280_temperature;BME280_humidity;BME280_pressure;Samples;Min_cycle;Max_cycle;Signal;HPM_P1;HPM_P2
2022/05/12 00:00:09;;;;;;;6.53;4.60;;;;;;;16.90;59.47;99874.94;4304183;33;34571;-76
2022/05/12 00:02:56;;;;;;;8.07;4.53;;;;;;;16.53;61.36;99878.47;4294523;33;36034;-75
2022/05/12 00:05:42;;;;;;;6.78;4.72;;;;;;;16.68;60.97;99877.00;4304128;33;34586;-76
2022/05/12 00:08:29;;;;;;;8.82;4.65;;;;;;;16.85;60.53;99881.53;4304532;33;34095;-76
2022/05/12 00:11:15;;;;;;;9.18;4.85;;;;;;;16.99;59.90;99878.37;4305250;33;34690;-76
2022/05/12 00:14:02;;;;;;;8.30;4.62;;;;;;;16.79;60.23;99877.34;4305240;33;34991;-76
2022/05/12 00:16:48;;;;;;;6.62;4.65;;;;;;;16.72;60.63;99875.16;4305193;33;35701;-76
2022/05/12 00:19:34;;;;;;;7.45;4.80;;;;;;;17.00;59.69;99866.97;4304323;33;35437;-76
2022/05/12 00:22:21;;;;;;;11.00;4.82;;;;;;;17.05;59.20;99872.28;4305161;33;34719;-76
2022/05/12 00:25:19;;;;;;;8.73;5.30;;;;;;;16.94;60.40;99871.13;4305201;33;35034;-76
2022/05/12 00:28:05;;;;;;;7.53;4.62;;;;;;;16.47;62.22;99868.81;4304266;33;34584;-76
2022/05/12 00:30:55;;;;;;;7.18;5.03;;;;;;;16.55;62.51;99865.13;4304095;33;34130;-76
2022/05/12 00:33:41;;;;;;;8.75;5.55;;;;;;;16.24;63.64;99851.03;4294005;33;35459;-76
2022/05/12 00:36:27;;;;;;;11.32;5.90;;;;;;;16.09;64.68;99850.56;4305151;33;35926;-75
2022/05/12 00:39:14;;;;;;;7.25;4.80;;;;;;;15.79;66.00;99854.63;4304325;33;34722;-75
2022/05/12 00:42:00;;;;;;;10.50;5.97;;;;;;;15.91;65.71;99857.44;4303877;33;34153;-76
2022/05/12 00:44:47;;;;;;;11.45;5.37;;;;;;;15.51;66.63;99861.53;4304757;33;34604;-76
2022/05/12 00:47:33;;;;;;;11.57;4.90;;;;;;;15.50;66.77;99854.38;4304946;33;36053;-76
2022/05/12 00:50:22;;;;;;;9.63;5.45;;;;;;;15.31;67.22;99856.81;4303808;33;34606;-76
2022/05/12 00:53:11;;;;;;;8.77;5.68;;;;;;;15.12;67.56;99851.78;4303869;33;35190;-75
2022/05/12 00:55:58;;;;;;;7.93;5.18;;;;;;;15.59;66.67;99859.81;4305036;33;34615;-76
2022/05/12 00:58:45;;;;;;;10.85;5.32;;;;;;;15.01;67.91;99858.84;4294034;33;33871;-75
2022/05/12 01:01:31;;;;;;;9.40;5.47;;;;;;;14.40;71.02;99859.16;4303914;33;34647;-76
2022/05/12 01:04:19;;;;;;;8.35;5.65;;;;;;;15.10;68.55;99862.34;4305006;33;34242;-75
2022/05/12 01:07:05;;;;;;;8.55;5.43;;;;;;;14.50;70.32;99855.22;4293834;33;34584;-76
2022/05/12 01:09:52;;;;;;;10.57;6.22;;;;;;;14.00;73.00;99855.87;4304712;33;35095;-75
2022/05/12 01:12:42;;;;;;;9.30;5.55;;;;;;;13.96;72.94;99866.75;4303970;33;34771;-75
2022/05/12 01:15:28;;;;;;;9.40;5.90;;;;;;;14.49;71.45;99862.69;4304089;33;34315;-75
2022/05/12 01:18:17;;;;;;;10.68;5.60;;;;;;;14.68;70.78;99855.94;4305014;33;34683;-75
2022/05/12 01:21:04;;;;;;;8.88;5.55;;;;;;;14.45;71.34;99852.62;4304903;33;36048;-76
2022/05/12 01:23:51;;;;;;;8.80;5.32;;;;;;;14.94;69.94;99858.53;4293811;33;34691;-76
2022/05/12 01:26:38;;;;;;;7.75;5.12;;;;;;;15.09;68.80;99855.22;4296374;33;35155;-75
2022/05/12 01:29:23;;;;;;;8.27;5.37;;;;;;;14.68;71.08;99859.50;4290371;33;35655;-75
2022/05/12 01:32:10;;;;;;;9.63;5.35;;;;;;;14.74;70.41;99854.63;4279290;33;34903;-75
2022/05/12 01:34:57;;;;;;;8.38;5.45;;;;;;;14.94;70.14;99858.53;4294605;33;33578;-76
2022/05/12 01:37:45;;;;;;;8.50;5.47;;;;;;;14.63;71.31;99851.44;4293817;33;34153;-75
2022/05/12 01:40:31;;;;;;;8.23;5.50;;;;;;;15.04;69.97;99860.91;4292463;33;34628;-75
2022/05/12 01:43:18;;;;;;;8.23;5.03;;;;;;;14.98;69.49;99859.50;4297890;33;35027;-76
2022/05/12 01:46:04;;;;;;;9.02;5.22;;;;;;;14.87;69.98;99852.75;4279178;33;34593;-75
2022/05/12 01:48:51;;;;;;;8.43;5.65;;;;;;;15.12;69.32;99842.69;4290637;33;34240;-76
2022/05/12 01:51:38;;;;;;;8.57;6.07;;;;;;;14.93;70.23;99857.75;4304622;33;35581;-75
2022/05/12 01:54:26;;;;;;;8.75;6.07;;;;;;;14.72;70.25;99854.97;4304416;33;35088;-75
2022/05/12 01:57:13;;;;;;;8.38;5.50;;;;;;;14.78;70.42;99850.88;4293587;33;35552;-75
2022/05/12 01:59:59;;;;;;;8.70;5.97;;;;;;;14.92;69.93;99849.81;4298977;33;34162;-75
2022/05/12 02:02:45;;;;;;;8.70;5.60;;;;;;;14.93;69.80;99851.44;4289916;33;34603;-76
2022/05/12 02:05:34;;;;;;;9.45;5.97;;;;;;;14.90;69.75;99846.56;4289401;33;35991;-75
2022/05/12 02:08:20;;;;;;;9.80;6.07;;;;;;;14.85;70.45;99845.62;4289815;33;34759;-75
2022/05/12 02:11:07;;;;;;;7.80;5.12;;;;;;;15.09;69.54;99837.84;4278995;33;34503;-75
2022/05/12 02:13:53;;;;;;;8.40;5.75;;;;;;;15.17;69.08;99823.97;4288768;33;34598;-75
2022/05/12 02:16:40;;;;;;;9.32;5.80;;;;;;;14.87;70.08;99825.97;4289022;33;35180;-75
2022/05/12 02:19:27;;;;;;;11.77;6.47;;;;;;;13.55;76.29;99831.50;4289789;33;34653;-75
2022/05/12 02:22:13;;;;;;;8.90;5.78;;;;;;;14.35;73.71;99837.28;4288873;33;35146;-75
2022/05/12 02:25:00;;;;;;;11.23;6.15;;;;;;;14.83;70.70;99827.81;4289858;33;34724;-75
2022/05/12 02:27:46;;;;;;;8.35;5.80;;;;;;;15.13;69.74;99830.50;4288693;33;34931;-75
2022/05/12 02:30:33;;;;;;;10.80;6.12;;;;;;;14.84;70.37;99827.47;4288593;33;34699;-75
2022/05/12 02:33:21;;;;;;;10.25;6.05;;;;;;;14.51;72.09;99830.06;4278788;33;34227;-75
2022/05/12 02:36:08;;;;;;;10.48;6.22;;;;;;;14.70;71.23;99826.91;4278944;33;34714;-75
2022/05/12 02:38:54;;;;;;;9.02;5.68;;;;;;;14.70;70.89;99837.12;4289385;33;35980;-75
2022/05/12 02:41:40;;;;;;;10.32;6.03;;;;;;;14.74;71.01;99841.66;4289565;33;34721;-75
2022/05/12 02:44:27;;;;;;;9.57;5.97;;;;;;;14.59;71.53;99842.22;4289433;33;34282;-75
2022/05/12 02:47:14;;;;;;;7.97;6.07;;;;;;;14.58;72.26;99837.84;4278348;33;35587;-75
2022/05/12 02:50:01;;;;;;;9.88;6.18;;;;;;;14.73;70.87;99831.75;4285063;33;36041;-75
2022/05/12 02:52:47;;;;;;;9.20;6.18;;;;;;;14.72;71.16;99834.84;4278613;33;34602;-75
2022/05/12 02:55:34;;;;;;;7.78;5.45;;;;;;;14.75;70.74;99840.50;4289458;33;34261;-74
2022/05/12 02:58:21;;;;;;;11.18;6.40;;;;;;;14.97;70.02;99847.66;4289281;33;34630;-75
2022/05/12 03:01:08;;;;;;;8.90;6.10;;;;;;;15.02;69.19;99841.94;4285761;33;35054;-75
2022/05/12 03:03:55;;;;;;;10.45;5.97;;;;;;;15.19;68.87;99848.47;4288188;33;34830;-75
2022/05/12 03:06:42;;;;;;;8.90;5.82;;;;;;;14.85;69.69;99848.37;4295532;33;34333;-75
2022/05/12 03:09:29;;;;;;;10.35;6.10;;;;;;;14.88;69.91;99855.19;4303689;33;34715;-75
2022/05/12 03:12:15;;;;;;;10.48;5.68;;;;;;;15.02;69.48;99854.94;4303652;33;35908;-75
2022/05/12 03:15:01;;;;;;;13.55;6.62;;;;;;;15.04;69.37;99852.66;4303410;33;34651;-75
2022/05/12 03:17:48;;;;;;;9.20;6.37;;;;;;;14.95;69.67;99860.97;4304385;33;35135;-75
2022/05/12 03:20:35;;;;;;;9.00;6.30;;;;;;;14.66;70.54;99867.34;4305543;33;35628;-75
2022/05/12 03:23:24;;;;;;;9.13;6.00;;;;;;;14.41;72.11;99866.28;4303833;33;35001;-72
2022/05/12 03:26:11;;;;;;;10.35;5.62;;;;;;;14.89;70.38;99862.31;4303058;33;34641;-72
2022/05/12 03:28:57;;;;;;;9.40;5.93;;;;;;;15.05;69.74;99859.78;4305229;33;34208;-72
2022/05/12 03:31:44;;;;;;;9.40;5.68;;;;;;;15.08;69.77;99864.63;4304695;33;35307;-72
2022/05/12 03:34:30;;;;;;;9.60;5.95;;;;;;;15.00;70.57;99863.56;4302204;33;35031;-72
2022/05/12 03:37:17;;;;;;;10.60;6.43;;;;;;;14.95;70.28;99860.97;4304645;33;34617;-72
2022/05/12 03:40:06;;;;;;;8.85;6.68;;;;;;;14.84;70.40;99866.06;4304367;33;35160;-72
2022/05/12 03:42:52;;;;;;;11.65;6.28;;;;;;;14.25;73.14;99865.19;4304404;33;34716;-72
2022/05/12 03:45:39;;;;;;;9.35;6.37;;;;;;;14.83;71.27;99860.91;4304636;33;34940;-72
2022/05/12 03:48:25;;;;;;;10.85;6.60;;;;;;;14.39;72.30;99863.03;4304561;33;34700;-72
2022/05/12 03:51:12;;;;;;;10.60;7.10;;;;;;;14.87;71.34;99861.84;4304462;33;34147;-73
2022/05/12 03:53:58;;;;;;;8.70;6.35;;;;;;;14.84;71.25;99863.31;4293209;33;34644;-72
2022/05/12 03:56:45;;;;;;;9.40;6.55;;;;;;;14.82;72.25;99857.31;4304284;33;35108;-72
2022/05/12 03:59:31;;;;;;;10.68;6.43;;;;;;;14.79;72.54;99869.03;4304391;33;34830;-73
2022/05/12 04:02:18;;;;;;;8.30;6.12;;;;;;;14.83;72.27;99870.00;4304255;33;35370;-71
2022/05/12 04:05:07;;;;;;;11.25;6.80;;;;;;;14.72;72.15;99865.19;4302020;33;88635;-72
2022/05/12 04:07:54;;;;;;;9.32;5.85;;;;;;;14.96;71.41;99867.31;4303318;33;35033;-72
2022/05/12 04:10:40;;;;;;;10.90;6.15;;;;;;;15.13;71.24;99875.47;4293759;33;34699;-72
2022/05/12 04:13:27;;;;;;;9.50;6.68;;;;;;;15.13;70.99;99878.22;4302682;33;34202;-71
2022/05/12 04:16:15;;;;;;;8.73;6.30;;;;;;;15.18;70.73;99878.03;4304057;33;34613;-71
2022/05/12 04:19:03;;;;;;;8.65;6.70;;;;;;;15.25;70.79;99878.31;4302801;33;36010;-71
2022/05/12 04:21:52;;;;;;;9.38;6.50;;;;;;;15.16;70.78;99880.31;4300952;33;34815;-71
2022/05/12 04:24:39;;;;;;;10.15;6.30;;;;;;;15.35;70.37;99892.84;4302342;33;35115;-71
2022/05/12 04:27:25;;;;;;;11.93;7.07;;;;;;;15.39;70.83;99880.78;4300184;33;34533;-72
2022/05/12 04:30:13;;;;;;;10.00;6.70;;;;;;;15.32;71.31;99886.03;4300722;33;35961;-70
2022/05/12 04:35:11;;;;;;;11.68;6.97;;;;;;;15.55;70.99;99888.47;4291061;33;35577;-71
2022/05/12 04:36:06;;;;;;;11.05;6.57;;;;;;;15.55;70.64;99894.78;4301792;33;33848;-71
2022/05/12 04:38:53;;;;;;;13.45;7.12;;;;;;;15.50;71.46;99893.03;4301740;33;35523;-71
2022/05/12 04:41:39;;;;;;;13.90;8.77;;;;;;;15.50;71.87;99897.75;4300498;33;34913;-71
2022/05/12 04:44:26;;;;;;;11.90;7.25;;;;;;;15.68;71.54;99899.25;4301790;33;34756;-71
2022/05/12 04:47:12;;;;;;;11.75;7.25;;;;;;;16.10;70.11;99910.22;4301777;33;34220;-71
2022/05/12 04:49:59;;;;;;;15.68;7.37;;;;;;;15.76;71.28;99905.84;4300332;33;34548;-71
2022/05/12 04:52:47;;;;;;;12.77;7.40;;;;;;;16.01;70.90;99917.00;4289574;33;34421;-70
2022/05/12 04:55:33;;;;;;;10.98;7.32;;;;;;;15.95;70.45;99908.91;4296740;33;35671;-71
2022/05/12 04:58:19;;;;;;;13.43;8.32;;;;;;;16.05;70.54;99904.94;4300564;33;34367;-70
2022/05/12 05:01:06;;;;;;;11.10;6.60;;;;;;;15.28;73.45;99908.00;4300853;33;34523;-70
2022/05/12 05:03:52;;;;;;;12.45;6.97;;;;;;;15.78;71.29;99908.28;4299578;33;35006;-71
2022/05/12 05:06:39;;;;;;;12.05;7.40;;;;;;;16.30;70.01;99916.03;4301903;33;34633;-71
2022/05/12 05:09:25;;;;;;;12.60;6.32;;;;;;;16.64;68.62;99914.81;4299164;33;33329;-71
2022/05/12 05:12:11;;;;;;;13.18;7.57;;;;;;;16.96;67.54;99915.88;4301311;33;34749;-71
2022/05/12 05:14:58;;;;;;;12.75;8.25;;;;;;;16.50;69.06;99911.56;4301891;33;35996;-71
2022/05/12 05:17:45;;;;;;;13.35;6.93;;;;;;;16.92;67.84;99916.91;4302779;33;35572;-73
2022/05/12 05:20:31;;;;;;;12.50;7.10;;;;;;;17.25;67.00;99909.28;4291288;33;33898;-71
2022/05/12 05:23:21;;;;;;;10.30;6.32;;;;;;;16.78;68.56;99917.25;4301316;33;34574;-72
2022/05/12 05:26:08;;;;;;;14.98;6.97;;;;;;;16.63;69.47;99921.50;4290906;33;34749;-71
2022/05/12 05:28:54;;;;;;;13.77;6.82;;;;;;;16.83;69.11;99917.84;4300265;33;34640;-71
2022/05/12 05:31:40;;;;;;;9.85;6.53;;;;;;;17.22;65.56;99923.00;4298731;33;33851;-71
2022/05/12 05:34:27;;;;;;;10.32;6.40;;;;;;;17.63;65.31;99924.63;4299028;33;34631;-71
2022/05/12 05:37:13;;;;;;;14.90;7.10;;;;;;;17.26;63.78;99918.38;4300546;33;36027;-72
2022/05/12 05:40:01;;;;;;;18.95;9.18;;;;;;;18.09;64.01;99916.03;4299018;33;34216;-71
2022/05/12 05:42:49;;;;;;;15.82;7.10;;;;;;;17.49;62.78;99913.94;4300085;33;34237;-71
2022/05/12 05:45:35;;;;;;;21.65;6.65;;;;;;;18.03;61.57;99912.72;4299149;33;35515;-71
2022/05/12 05:48:21;;;;;;;14.00;6.70;;;;;;;17.65;62.99;99921.50;4301647;33;35667;-71
2022/05/12 05:54:13;;;;;;;12.93;5.47;;;;;;;18.47;61.20;99918.25;4298763;33;34426;-72
2022/05/12 05:56:59;;;;;;;8.40;5.18;;;;;;;18.26;60.93;99917.69;4301430;33;34612;-70
2022/05/12 05:59:46;;;;;;;11.77;5.37;;;;;;;19.09;59.88;99916.59;4299821;33;34664;-70
2022/05/12 06:02:33;;;;;;;7.85;4.78;;;;;;;18.74;59.92;99916.56;4299673;33;34421;-70
2022/05/12 06:05:21;;;;;;;8.27;4.30;;;;;;;18.94;58.34;99924.97;4290061;33;34120;-71
2022/05/12 06:08:10;;;;;;;13.80;5.30;;;;;;;18.71;58.18;99920.03;4300890;33;34618;-70
2022/05/12 06:11:03;;;;;;;8.07;5.15;;;;;;;19.17;59.50;99925.91;4299170;33;34356;-71
2022/05/12 06:13:49;;;;;;;9.25;5.55;;;;;;;19.18;59.41;99921.12;4301662;33;34656;-70
2022/05/12 06:16:35;;;;;;;11.32;5.07;;;;;;;19.58;59.43;99929.19;4303361;33;34227;-70
2022/05/12 06:19:22;;;;;;;9.40;4.95;;;;;;;20.00;58.43;99928.47;4302612;33;33219;-70
2022/05/12 06:22:09;;;;;;;12.82;5.18;;;;;;;20.14;56.43;99923.19;4300948;33;35956;-70
2022/05/12 06:24:55;;;;;;;11.95;5.57;;;;;;;20.56;55.36;99913.22;4301922;33;34639;-70
2022/05/12 06:27:42;;;;;;;13.10;5.65;;;;;;;20.42;57.53;99914.56;4301053;33;33890;-70
2022/05/12 06:30:29;;;;;;;9.95;5.30;;;;;;;20.54;53.79;99916.38;4301511;33;35579;-70
2022/05/12 06:33:17;;;;;;;10.15;6.10;;;;;;;20.20;54.39;99921.69;4299331;33;35995;-71
2022/05/12 06:36:05;;;;;;;8.55;5.32;;;;;;;20.57;55.14;99926.75;4299003;33;35531;-71
2022/05/12 06:38:51;;;;;;;8.48;4.93;;;;;;;19.85;55.71;99921.03;4300719;33;34154;-71
2022/05/12 06:41:38;;;;;;;10.75;5.62;;;;;;;20.72;55.57;99922.25;4300653;33;33438;-71
2022/05/12 06:44:25;;;;;;;8.35;5.35;;;;;;;20.92;54.19;99917.41;4288795;33;34575;-70
2022/05/12 06:47:13;;;;;;;8.30;5.20;;;;;;;20.17;54.27;99928.00;4300478;33;35416;-71
2022/05/12 06:50:03;;;;;;;13.13;6.53;;;;;;;20.71;54.17;99931.78;4299604;33;33840;-71
2022/05/12 06:52:49;;;;;;;13.55;5.78;;;;;;;20.91;54.23;99928.91;4291100;33;34739;-70
2022/05/12 06:55:35;;;;;;;12.65;6.37;;;;;;;20.65;54.55;99933.25;4302878;33;36050;-70
2022/05/12 06:58:22;;;;;;;12.43;5.55;;;;;;;20.95;53.38;99935.34;4302043;33;34337;-71
2022/05/12 07:01:09;;;;;;;12.37;5.30;;;;;;;20.89;51.77;99932.09;4301840;33;35149;-70
2022/05/12 07:03:58;;;;;;;10.73;5.95;;;;;;;20.92;52.97;99938.84;4298321;33;34163;-72
2022/05/12 07:06:45;;;;;;;17.00;6.93;;;;;;;20.68;53.02;99932.50;4293012;33;36040;-70
2022/05/12 07:09:31;;;;;;;9.60;5.97;;;;;;;21.28;53.59;99929.06;4299501;33;35451;-72
2022/05/12 07:12:19;;;;;;;9.10;5.10;;;;;;;21.23;51.46;99921.03;4301611;33;34265;-71
2022/05/12 07:15:05;;;;;;;10.48;5.35;;;;;;;21.59;51.56;99927.13;4302272;33;34573;-72
2022/05/12 07:17:53;;;;;;;11.82;5.70;;;;;;;21.99;51.24;99921.62;4300852;33;35914;-72
2022/05/12 07:27:08;;;;;;;15.02;6.55;;;;;;;22.01;49.42;99922.06;4301750;33;36161;-71
2022/05/12 07:29:54;;;;;;;10.20;5.87;;;;;;;22.21;52.59;99928.28;4300736;33;34936;-71
2022/05/12 07:32:40;;;;;;;11.63;6.12;;;;;;;22.70;49.66;99920.78;4302996;33;34709;-71
2022/05/12 07:35:27;;;;;;;11.88;5.53;;;;;;;22.94;49.03;99919.38;4301507;33;33860;-72
2022/05/12 07:38:13;;;;;;;11.85;5.90;;;;;;;23.41;47.99;99917.69;4302541;33;35250;-72
2022/05/12 07:41:00;;;;;;;14.57;5.93;;;;;;;23.53;47.80;99916.56;4301324;33;34953;-72
2022/05/12 07:43:47;;;;;;;14.02;5.40;;;;;;;23.53;47.69;99925.75;4300223;33;34828;-71
2022/05/12 07:46:34;;;;;;;11.75;5.15;;;;;;;23.13;47.08;99916.31;4300141;33;36626;-72
2022/05/12 07:49:19;;;;;;;11.95;5.78;;;;;;;23.74;47.32;99911.09;4300026;33;34370;-72
2022/05/12 07:52:10;;;;;;;8.25;4.85;;;;;;;22.73;48.64;99908.81;4304669;33;34967;-72
2022/05/12 07:54:57;;;;;;;10.77;5.50;;;;;;;23.81;46.41;99904.72;4290900;33;34296;-72
2022/05/12 07:57:44;;;;;;;10.23;5.85;;;;;;;24.18;46.77;99910.00;4301021;33;33930;-72
2022/05/12 08:00:31;;;;;;;11.63;6.12;;;;;;;23.84;46.85;99917.13;4300338;33;34721;-73
2022/05/12 08:03:18;;;;;;;8.25;5.07;;;;;;;23.37;46.40;99910.47;4299887;33;35026;-73
2022/05/12 08:06:04;;;;;;;11.73;5.75;;;;;;;24.50;45.26;99912.09;4301512;33;35535;-74
2022/05/12 08:08:51;;;;;;;10.73;5.75;;;;;;;24.57;46.77;99923.31;4299251;33;34796;-73
2022/05/12 08:11:37;;;;;;;11.95;6.55;;;;;;;24.12;46.41;99914.41;4291620;33;33736;-72
2022/05/12 08:14:24;;;;;;;10.35;5.32;;;;;;;23.79;44.64;99918.28;4290206;33;35943;-72
2022/05/12 08:17:10;;;;;;;11.05;5.55;;;;;;;24.44;43.83;99922.09;4290511;33;35077;-71
2022/05/12 08:19:57;;;;;;;10.52;5.37;;;;;;;24.88;44.14;99912.50;4298946;33;33908;-71
2022/05/12 08:22:44;;;;;;;13.93;5.53;;;;;;;24.71;43.45;99924.53;4301876;33;34605;-71
2022/05/12 08:25:30;;;;;;;8.40;5.90;;;;;;;25.06;42.79;99920.88;4298907;33;34552;-72
2022/05/12 08:28:19;;;;;;;16.00;6.60;;;;;;;24.38;43.59;99920.84;4298142;33;35470;-72
2022/05/12 08:31:05;;;;;;;11.05;6.03;;;;;;;24.66;43.28;99915.31;4298902;33;34543;-71
2022/05/12 08:33:56;;;;;;;17.60;5.75;;;;;;;24.23;44.64;99912.44;4301597;33;34544;-71
2022/05/12 08:36:42;;;;;;;12.07;6.20;;;;;;;25.22;43.79;99924.09;4299835;33;35094;-71
2022/05/12 08:39:28;;;;;;;8.88;5.72;;;;;;;25.71;40.91;99924.34;4301649;33;34916;-71
2022/05/12 08:42:20;;;;;;;8.98;5.68;;;;;;;25.46;42.08;99916.81;4300022;33;34317;-72
2022/05/12 08:45:08;;;;;;;12.15;6.18;;;;;;;26.14;42.54;99926.97;4290389;33;34556;-72
2022/05/12 08:47:56;;;;;;;12.82;6.72;;;;;;;26.67;39.79;99926.66;4290064;33;35052;-72
2022/05/12 08:50:48;;;;;;;11.10;6.30;;;;;;;25.44;42.19;99924.03;4300364;33;34586;-71
2022/05/12 08:53:44;;;;;;;12.23;6.32;;;;;;;25.64;41.62;99927.97;4298360;33;34676;-72
2022/05/12 08:56:30;;;;;;;10.55;6.32;;;;;;;25.54;42.28;99926.81;4292879;33;34287;-72
2022/05/12 08:59:17;;;;;;;10.50;6.00;;;;;;;25.81;42.42;99934.72;4290846;33;36000;-72
2022/05/12 09:02:20;;;;;;;14.80;6.62;;;;;;;26.69;40.89;99929.81;4303347;33;35456;-72
2022/05/12 09:05:11;;;;;;;13.52;6.22;;;;;;;27.16;38.70;99932.28;4291140;33;32913;-71
2022/05/12 09:08:06;;;;;;;14.55;6.55;;;;;;;27.35;40.19;99920.41;4290048;33;34677;-71
2022/05/12 09:11:38;;;;;;;15.23;7.07;;;;;;;27.13;39.17;99931.06;4301901;33;35988;-71
2022/05/12 09:14:34;;;;;;;11.32;6.12;;;;;;;27.05;39.21;99931.53;4298127;33;34608;-70
2022/05/12 09:17:48;;;;;;;12.37;6.50;;;;;;;27.08;40.00;99930.72;4299638;33;33096;-71
2022/05/12 09:20:35;;;;;;;12.50;6.62;;;;;;;27.40;39.76;99923.97;4298993;33;35406;-71
2022/05/12 09:23:22;;;;;;;8.27;6.40;;;;;;;26.86;40.94;99922.47;4289182;33;35885;-71
2022/05/12 09:26:32;;;;;;;12.93;5.97;;;;;;;27.51;40.20;99933.09;4299866;33;34880;-71
2022/05/12 09:29:22;;;;;;;11.00;6.30;;;;;;;26.65;39.15;99937.50;4299142;33;33686;-73
2022/05/12 09:32:08;;;;;;;9.35;6.03;;;;;;;26.85;38.71;99937.75;4300576;33;34353;-72
2022/05/12 09:35:10;;;;;;;10.95;5.90;;;;;;;27.50;37.09;99937.16;4300887;33;35588;-70
2022/05/12 09:37:58;;;;;;;11.05;6.37;;;;;;;27.51;37.24;99939.53;4299264;33;35805;-71
2022/05/12 09:40:44;;;;;;;10.05;6.18;;;;;;;27.48;38.54;99937.56;4299965;33;34324;-71
2022/05/12 09:43:32;;;;;;;10.07;6.68;;;;;;;27.60;38.43;99930.56;4300239;33;34185;-71
2022/05/12 09:46:29;;;;;;;11.85;6.30;;;;;;;27.39;37.87;99931.63;4300014;33;34717;-71
2022/05/12 09:49:18;;;;;;;11.25;6.22;;;;;;;27.52;37.97;99923.44;4289789;33;34328;-70
2022/05/12 09:52:32;;;;;;;12.18;6.72;;;;;;;27.55;36.85;99917.78;4302624;33;33740;-71
2022/05/12 09:55:28;;;;;;;15.02;6.90;;;;;;;28.35;37.82;99926.00;4297050;33;34577;-72
2022/05/12 09:58:14;;;;;;;13.20;6.70;;;;;;;28.58;35.96;99920.44;4299253;33;34956;-71
2022/05/12 10:01:20;;;;;;;14.73;5.95;;;;;;;28.15;36.69;99918.25;4300613;33;34120;-71
2022/05/12 10:10:30;;;;;;;12.30;6.65;;;;;;;28.27;36.92;99911.22;4285501;33;35994;-71
2022/05/12 10:13:36;;;;;;;11.80;6.87;;;;;;;28.86;37.13;99912.72;4299404;33;35397;-72
2022/05/12 10:16:26;;;;;;;16.87;7.60;;;;;;;29.72;34.99;99900.66;4295374;33;34255;-72
2022/05/12 10:19:20;;;;;;;9.25;5.97;;;;;;;29.56;36.44;99897.72;4297744;33;35584;-72
2022/05/12 10:22:17;;;;;;;11.80;6.47;;;;;;;29.93;36.73;99892.94;4298491;33;35804;-73
2022/05/12 10:25:06;;;;;;;9.52;6.10;;;;;;;29.93;34.79;99887.28;4288336;33;34884;-72
2022/05/12 10:28:31;;;;;;;8.57;6.03;;;;;;;29.01;34.89;99885.06;4298617;33;33787;-72
2022/05/12 10:31:37;;;;;;;12.10;6.68;;;;;;;29.67;33.84;99891.91;4297540;33;35156;-72
2022/05/12 10:35:08;;;;;;;11.77;6.30;;;;;;;29.28;34.54;99880.13;4303412;33;35095;-72
2022/05/12 10:38:26;;;;;;;;;;;;;;;29.17;34.12;99871.06;4291834;33;34818;-72
2022/05/12 10:41:20;;;;;;;10.88;6.37;;;;;;;29.58;35.31;99884.78;4284257;33;33923;-72
2022/05/12 10:44:36;;;;;;;11.95;6.28;;;;;;;30.39;32.96;99879.78;4301368;33;34545;-72
2022/05/12 10:47:43;;;;;;;12.13;5.55;;;;;;;29.02;35.59;99886.66;4302157;33;34975;-71
2022/05/12 10:50:37;;;;;;;11.77;6.22;;;;;;;29.38;34.73;99872.69;4297599;33;34582;-72
2022/05/12 10:53:54;;;;;;;10.60;5.93;;;;;;;29.44;34.17;99876.59;4296492;33;35126;-72
2022/05/12 10:56:59;;;;;;;8.32;6.12;;;;;;;30.46;33.35;99877.59;4300577;33;34483;-72
2022/05/12 10:59:49;;;;;;;11.35;6.95;;;;;;;30.39;33.46;99886.22;4300590;33;35046;-72
2022/05/12 11:02:35;;;;;;;10.98;5.85;;;;;;;30.34;32.05;99889.63;4297673;33;34211;-71
2022/05/12 11:05:21;;;;;;;7.90;5.07;;;;;;;30.73;32.48;99882.16;4299295;33;34923;-71
2022/05/12 11:08:14;;;;;;;12.18;5.97;;;;;;;30.70;32.27;99871.75;4298569;33;35280;-74
2022/05/12 11:11:03;;;;;;;9.93;5.65;;;;;;;31.06;31.76;99859.53;4295706;33;34968;-71
2022/05/12 11:13:54;;;;;;;10.05;5.93;;;;;;;31.72;32.67;99855.22;4288282;33;35282;-71
2022/05/12 11:16:44;;;;;;;12.32;6.00;;;;;;;31.05;31.52;99858.72;4297565;33;33711;-71
2022/05/12 11:19:30;;;;;;;9.93;5.50;;;;;;;30.17;33.17;99851.22;4299089;33;34710;-72
2022/05/12 11:22:19;;;;;;;7.80;4.80;;;;;;;29.88;31.48;99851.09;4297696;33;33348;-72
2022/05/12 11:25:30;;;;;;;8.93;5.10;;;;;;;30.43;29.91;99858.69;4298638;33;34755;-72
2022/05/12 11:31:32;;;;;;;8.18;5.07;;;;;;;29.22;31.04;99859.28;4298965;33;34750;-72
2022/05/12 11:34:21;;;;;;;6.35;4.57;;;;;;;29.29;31.12;99845.06;4287874;33;35870;-72
2022/05/12 11:37:30;;;;;;;8.27;4.80;;;;;;;29.94;30.87;99849.31;4287303;33;34998;-72
2022/05/12 11:40:55;;;;;;;10.48;5.25;;;;;;;30.11;30.13;99841.66;4299588;33;34004;-72
2022/05/12 11:47:01;;;;;;;7.15;5.07;;;;;;;30.80;29.07;99825.47;4285346;33;35943;-72
2022/05/12 11:50:05;;;;;;;9.00;4.68;;;;;;;31.16;28.99;99841.44;4299028;33;34226;-73
2022/05/12 11:53:22;;;;;;;7.95;4.37;;;;;;;31.07;28.20;99838.47;4302042;33;34176;-72
2022/05/12 11:56:11;;;;;;;6.30;4.70;;;;;;;31.20;28.27;99833.66;4299519;33;35585;-72
2022/05/12 11:59:19;;;;;;;10.27;4.85;;;;;;;31.34;29.12;99827.59;4288624;33;35016;-72
2022/05/12 12:02:07;;;;;;;9.57;4.85;;;;;;;30.43;27.49;99833.25;4300596;33;34287;-72
2022/05/12 12:04:55;;;;;;;8.35;4.68;;;;;;;30.86;28.69;99829.34;4300071;33;35013;-72
2022/05/12 12:07:42;;;;;;;8.25;3.97;;;;;;;30.08;27.50;99832.03;4300321;33;34219;-73
2022/05/12 12:10:31;;;;;;;7.68;4.50;;;;;;;30.28;25.88;99825.56;4301425;33;35008;-72
2022/05/12 12:13:35;;;;;;;6.72;3.70;;;;;;;30.66;26.00;99831.47;4301865;33;34223;-72
2022/05/12 12:16:28;;;;;;;6.05;3.58;;;;;;;31.25;24.73;99824.63;4300184;33;33864;-73
2022/05/12 12:19:41;;;;;;;7.22;3.62;;;;;;;31.40;26.71;99819.38;4300429;33;33367;-72
2022/05/12 12:22:33;;;;;;;8.10;4.15;;;;;;;31.30;24.99;99823.25;4300547;33;34634;-72
2022/05/12 12:25:37;;;;;;;7.62;3.87;;;;;;;31.24;26.08;99820.19;4298783;33;35525;-72
2022/05/12 12:28:33;;;;;;;7.32;3.85;;;;;;;31.40;23.71;99815.75;4297688;33;35072;-73
2022/05/12 12:31:30;;;;;;;11.30;3.83;;;;;;;31.35;25.51;99809.38;4297711;33;34664;-73
2022/05/12 12:34:22;;;;;;;7.50;3.70;;;;;;;31.66;24.88;99820.19;4298499;33;34582;-73
2022/05/12 12:37:09;;;;;;;8.80;4.25;;;;;;;31.72;24.80;99815.56;4299014;33;34838;-72
2022/05/12 12:39:56;;;;;;;6.60;4.05;;;;;;;31.75;24.57;99814.66;4300362;33;33924;-73
2022/05/12 12:42:45;;;;;;;8.38;3.72;;;;;;;31.05;25.74;99812.66;4300438;33;32446;-73
2022/05/12 12:45:35;;;;;;;6.47;3.15;;;;;;;31.55;24.80;99806.34;4287611;33;34415;-73
2022/05/12 12:48:30;;;;;;;6.05;3.33;;;;;;;30.73;23.28;99807.84;4290754;33;34675;-73
2022/05/12 12:51:51;;;;;;;9.48;3.50;;;;;;;31.26;22.89;99789.41;4299285;33;35110;-73
2022/05/12 12:57:43;;;;;;;14.30;3.95;;;;;;;31.28;24.38;99792.59;4299387;33;34824;-73
2022/05/12 13:00:33;;;;;;;4.07;3.37;;;;;;;30.86;23.85;99789.72;4300274;33;34745;-73
2022/05/12 13:03:21;;;;;;;6.40;3.25;;;;;;;31.08;23.69;99794.78;4300158;33;34314;-74
2022/05/12 13:06:09;;;;;;;9.10;3.40;;;;;;;30.50;25.03;99789.06;4300722;33;34229;-73
2022/05/12 13:08:57;;;;;;;5.93;3.87;;;;;;;31.03;25.07;99789.69;4298365;33;34422;-73
2022/05/12 13:11:43;;;;;;;6.03;3.53;;;;;;;31.19;25.56;99780.31;4290963;33;35132;-73
2022/05/12 13:14:33;;;;;;;5.62;3.30;;;;;;;31.49;24.83;99779.06;4297989;33;34159;-74
2022/05/12 13:17:28;;;;;;;4.57;3.33;;;;;;;30.86;24.94;99783.28;4302526;33;35624;-73
2022/05/12 13:20:24;;;;;;;5.43;3.42;;;;;;;30.58;24.84;99771.47;4300397;33;35733;-74
2022/05/12 13:23:16;;;;;;;9.25;4.78;;;;;;;30.66;24.51;99774.91;4301582;33;34605;-74
2022/05/12 13:26:05;;;;;;;9.38;4.03;;;;;;;30.89;25.15;99779.56;4296628;33;34257;-75
2022/05/12 13:28:51;;;;;;;7.37;3.67;;;;;;;30.16;25.72;99770.50;4296254;33;34390;-75
2022/05/12 13:31:42;;;;;;;7.12;3.60;;;;;;;29.87;25.99;99765.56;4298518;33;34674;-74
2022/05/12 13:34:31;;;;;;;;;;;;;;;30.04;25.93;99764.34;4300525;33;35261;-74
2022/05/12 13:37:20;;;;;;;4.85;3.70;;;;;;;30.45;25.99;99770.59;4299993;33;34309;-74
2022/05/12 13:40:07;;;;;;;5.40;3.95;;;;;;;30.46;26.43;99777.84;4301210;33;35652;-73